Time;durP1;ratioP1;P1;durP2;ratioP2;P2;SDS_P1;SDS_P2;PMS_P1;PMS_P2;Temp;Humidity;BMP_temperature;BMP_pressure;BME280_temperature;BME280_humidity;BME280_pressure;Samples;Min_cycle;Max_cycle;Signal;HPM_P1;HPM_P2
2023/06/07 00:01:58;;;;;;;;;;;15.70;69.30;;;;;;5074418;28;20362;-35
2023/06/07 00:04:23;;;;;;;;;;;15.70;69.30;;;;;;5092703;28;20020;-36
2023/06/07 00:06:48;;;;;;;;;;;15.70;69.20;;;;;;5074298;28;19947;-34
2023/06/07 00:09:14;;;;;;;;;;;15.70;69.20;;;;;;5092710;28;20041;-36
2023/06/07 00:11:40;;;;;;;;;;;15.60;69.30;;;;;;5092552;28;19912;-36
2023/06/07 00:14:05;;;;;;;;;;;15.60;69.40;;;;;;5092535;28;20383;-36
2023/06/07 00:16:32;;;;;;;;;;;15.50;69.40;;;;;;5092364;28;20288;-36
2023/06/07 00:18:58;;;;;;;;;;;15.50;69.50;;;;;;5092293;28;20393;-37
2023/06/07 00:21:24;;;;;;;;;;;15.40;69.60;;;;;;5092406;28;19962;-37
2023/06/07 00:23:50;;;;;;;;;;;15.40;69.70;;;;;;5092294;28;20002;-34
2023/06/07 00:26:15;;;;;;;;;;;15.40;69.70;;;;;;5092280;28;20013;-35
2023/06/07 00:28:41;;;;;;;;;;;15.30;69.60;;;;;;5092080;28;19920;-35
2023/06/07 00:31:07;;;;;;;;;;;15.30;69.90;;;;;;5092337;28;19912;-37
2023/06/07 00:33:32;;;;;;;;;;;15.20;70.00;;;;;;5091992;28;20279;-33
2023/06/07 00:35:58;;;;;;;;;;;15.20;70.00;;;;;;5092227;28;20023;-35
2023/06/07 00:38:24;;;;;;;;;;;15.20;69.90;;;;;;5074000;28;19916;-35
2023/06/07 00:40:50;;;;;;;;;;;15.20;69.90;;;;;;5092092;28;19934;-34
2023/06/07 00:43:15;;;;;;;;;;;15.30;70.20;;;;;;5092424;28;19994;-36
2023/06/07 00:45:41;;;;;;;;;;;15.20;70.00;;;;;;5092169;28;19916;-36
2023/06/07 00:48:07;;;;;;;;;;;15.10;70.20;;;;;;5092122;28;19957;-36
2023/06/07 00:50:33;;;;;;;;;;;15.10;70.30;;;;;;5092048;28;19912;-36
2023/06/07 00:52:59;;;;;;;;;;;15.10;70.50;;;;;;5091922;28;20375;-35
2023/06/07 00:55:25;;;;;;;;;;;15.00;70.60;;;;;;5091891;28;19916;-36
2023/06/07 00:57:50;;;;;;;;;;;14.90;70.90;;;;;;5091965;28;20151;-35
2023/06/07 01:00:16;;;;;;;;;;;14.90;71.00;;;;;;5091824;28;20255;-36
2023/06/07 01:02:46;;;;;;;;;;;14.80;70.80;;;;;;5073331;22;19925;-82
2023/06/07 01:05:14;;;;;;;;;;;14.80;71.20;;;;;;5071654;22;19978;-34
2023/06/07 01:07:43;;;;;;;;;;;14.70;71.20;;;;;;5052258;28;19913;-35
2023/06/07 01:10:09;;;;;;;;;;;14.70;71.20;;;;;;5054642;28;20314;-34
2023/06/07 01:12:35;;;;;;;;;;;14.80;71.10;;;;;;5056429;28;19935;-35
2023/06/07 01:15:02;;;;;;;;;;;14.90;70.90;;;;;;5056230;28;19913;-34
2023/06/07 01:17:28;;;;;;;;;;;14.90;70.70;;;;;;5056196;28;19909;-34
2023/06/07 01:19:55;;;;;;;;;;;15.00;70.60;;;;;;5056177;28;19931;-35
2023/06/07 01:22:27;;;;;;;;;;;15.00;70.50;;;;;;5056128;28;19991;-36
2023/06/07 01:24:55;;;;;;;;;;;15.00;70.50;;;;;;5056214;28;19944;-35
2023/06/07 01:27:21;;;;;;;;;;;15.00;70.50;;;;;;5056120;28;20343;-33
2023/06/07 01:29:48;;;;;;;;;;;14.90;70.50;;;;;;5056032;28;19916;-35
2023/06/07 01:32:14;;;;;;;;;;;14.90;70.50;;;;;;5055999;28;19908;-35
2023/06/07 01:34:41;;;;;;;;;;;14.90;70.70;;;;;;5055921;28;19912;-33
2023/06/07 01:37:06;;;;;;;;;;;14.90;70.70;;;;;;5054644;28;19932;-35
2023/06/07 01:39:32;;;;;;;;;;;14.90;70.80;;;;;;5055797;28;19913;-33
2023/06/07 01:41:59;;;;;;;;;;;14.80;71.00;;;;;;5055954;28;19909;-33
2023/06/07 01:44:25;;;;;;;;;;;14.80;71.00;;;;;;5055780;28;19916;-36
2023/06/07 01:46:50;;;;;;;;;;;14.70;71.10;;;;;;5055691;28;20279;-34
2023/06/07 01:49:22;;;;;;;;;;;14.70;71.40;;;;;;5055948;28;19908;-34
2023/06/07 01:51:47;;;;;;;;;;;14.60;71.70;;;;;;5055658;28;19975;-35
2023/06/07 01:54:14;;;;;;;;;;;14.50;71.80;;;;;;5055597;28;19912;-33
2023/06/07 01:56:55;;;;;;;;;;;14.50;71.90;;;;;;5055402;28;19961;-36
2023/06/07 01:59:31;;;;;;;;;;;14.40;72.10;;;;;;5055599;28;19916;-34
2023/06/07 02:02:15;;;;;;;;;;;14.40;72.00;;;;;;5057410;28;19913;-35
2023/06/07 02:04:42;;;;;;;;;;;14.40;72.00;;;;;;5075163;28;20397;-34
2023/06/07 02:07:09;;;;;;;;;;;14.40;72.10;;;;;;5075388;28;20344;-36
2023/06/07 02:09:38;;;;;;;;;;;14.30;72.10;;;;;;5075227;28;20344;-35
2023/06/07 02:12:05;;;;;;;;;;;14.30;72.10;;;;;;5075249;28;19915;-34
2023/06/07 02:14:31;;;;;;;;;;;14.30;72.30;;;;;;5075209;28;19908;-34
2023/06/07 02:16:56;;;;;;;;;;;14.30;72.20;;;;;;5075257;28;19916;-35
2023/06/07 02:19:22;;;;;;;;;;;14.30;72.20;;;;;;5075003;28;20019;-34
2023/06/07 02:21:47;;;;;;;;;;;14.30;72.20;;;;;;5074128;28;19909;-34
2023/06/07 02:24:13;;;;;;;;;;;14.30;72.20;;;;;;5075237;28;20001;-36
2023/06/07 02:26:38;;;;;;;;;;;14.30;72.10;;;;;;5074964;28;19915;-33
2023/06/07 02:29:04;;;;;;;;;;;14.30;72.10;;;;;;5074914;28;19915;-34
2023/06/07 02:31:30;;;;;;;;;;;14.30;72.10;;;;;;5075130;28;20375;-34
2023/06/07 02:33:55;;;;;;;;;;;14.30;72.10;;;;;;5074948;28;19915;-35
2023/06/07 02:36:21;;;;;;;;;;;14.30;72.30;;;;;;5074863;28;20015;-33
2023/06/07 02:38:47;;;;;;;;;;;14.20;72.40;;;;;;5074654;28;19958;-34
2023/06/07 02:41:13;;;;;;;;;;;14.20;72.30;;;;;;5074743;28;19908;-34
2023/06/07 02:43:38;;;;;;;;;;;14.20;72.50;;;;;;5074725;28;20326;-44
2023/06/07 02:46:03;;;;;;;;;;;14.10;72.60;;;;;;5074711;28;19914;-35
2023/06/07 02:48:29;;;;;;;;;;;14.10;72.70;;;;;;5074589;28;19912;-35
2023/06/07 02:50:55;;;;;;;;;;;14.00;72.70;;;;;;5074421;28;20368;-35
2023/06/07 02:53:20;;;;;;;;;;;14.00;72.70;;;;;;5074558;28;19947;-34
2023/06/07 02:55:46;;;;;;;;;;;14.00;72.90;;;;;;5074559;28;19915;-34
2023/06/07 02:58:13;;;;;;;;;;;13.90;72.90;;;;;;5074534;28;19917;-35
2023/06/07 03:00:39;;;;;;;;;;;13.90;73.30;;;;;;5074503;28;20281;-36
2023/06/07 03:03:05;;;;;;;;;;;13.90;73.30;;;;;;5074289;28;20367;-34
2023/06/07 03:05:31;;;;;;;;;;;13.90;73.80;;;;;;5074074;28;19917;-34
2023/06/07 03:08:00;;;;;;;;;;;13.80;73.60;;;;;;5074422;28;19908;-35
2023/06/07 03:10:26;;;;;;;;;;;13.70;73.80;;;;;;5074282;28;20283;-35
2023/06/07 03:12:51;;;;;;;;;;;13.70;74.00;;;;;;5074274;28;19909;-35
2023/06/07 03:15:17;;;;;;;;;;;13.70;74.00;;;;;;5074011;28;19991;-35
2023/06/07 03:17:43;;;;;;;;;;;13.70;74.00;;;;;;5074136;28;20363;-36
2023/06/07 03:20:09;;;;;;;;;;;13.60;73.90;;;;;;5074069;28;19908;-35
2023/06/07 03:22:37;;;;;;;;;;;13.70;73.80;;;;;;5073944;28;20012;-34
2023/06/07 03:25:03;;;;;;;;;;;13.70;73.80;;;;;;5073964;28;19947;-35
2023/06/07 03:27:32;;;;;;;;;;;13.70;73.80;;;;;;5073802;28;20590;-36
2023/06/07 03:29:58;;;;;;;;;;;13.70;73.70;;;;;;5073894;28;20291;-35
2023/06/07 03:32:23;;;;;;;;;;;13.70;73.60;;;;;;5073717;28;19908;-33
2023/06/07 03:34:49;;;;;;;;;;;13.80;73.60;;;;;;5073689;28;19935;-35
2023/06/07 03:37:15;;;;;;;;;;;13.80;73.50;;;;;;5073642;28;20390;-34
2023/06/07 03:39:40;;;;;;;;;;;13.80;73.40;;;;;;5073550;28;19958;-34
2023/06/07 03:42:06;;;;;;;;;;;13.80;73.50;;;;;;5073527;28;19909;-35
2023/06/07 03:44:31;;;;;;;;;;;13.80;73.50;;;;;;5073584;28;19908;-34
2023/06/07 03:46:57;;;;;;;;;;;13.80;73.60;;;;;;5073551;28;20385;-35
2023/06/07 03:49:22;;;;;;;;;;;13.70;73.70;;;;;;5073284;28;19964;-34
2023/06/07 03:51:49;;;;;;;;;;;13.70;73.70;;;;;;5073373;28;19963;-35
2023/06/07 03:54:15;;;;;;;;;;;13.70;73.70;;;;;;5073312;28;20003;-35
2023/06/07 03:56:40;;;;;;;;;;;13.70;73.70;;;;;;5073177;28;19940;-34
2023/06/07 03:59:06;;;;;;;;;;;13.70;73.70;;;;;;5073168;28;19919;-35
2023/06/07 04:01:32;;;;;;;;;;;13.70;73.70;;;;;;5073090;28;20267;-34
2023/06/07 04:03:57;;;;;;;;;;;13.70;73.70;;;;;;5072964;28;19919;-34
2023/06/07 04:06:26;;;;;;;;;;;13.70;73.80;;;;;;5073246;28;19909;-35
2023/06/07 04:08:59;;;;;;;;;;;13.70;74.00;;;;;;5073102;28;19909;-34
2023/06/07 04:11:26;;;;;;;;;;;13.70;74.10;;;;;;5073001;28;19909;-34
2023/06/07 04:13:51;;;;;;;;;;;13.60;74.10;;;;;;5073054;28;19915;-33
2023/06/07 04:16:17;;;;;;;;;;;13.60;74.20;;;;;;5072910;28;19909;-36
2023/06/07 04:18:42;;;;;;;;;;;13.60;74.30;;;;;;5072639;28;20412;-33
2023/06/07 04:21:08;;;;;;;;;;;13.60;74.30;;;;;;5073011;28;19946;-35
2023/06/07 04:23:33;;;;;;;;;;;13.60;74.60;;;;;;5072834;28;19944;-33
2023/06/07 04:25:59;;;;;;;;;;;13.60;74.40;;;;;;5073216;28;20294;-36
2023/06/07 04:28:25;;;;;;;;;;;13.50;74.50;;;;;;5072759;28;19915;-34
2023/06/07 04:30:52;;;;;;;;;;;13.50;74.50;;;;;;5072795;28;19909;-35
2023/06/07 04:33:19;;;;;;;;;;;13.60;74.70;;;;;;5073022;28;19931;-34
2023/06/07 04:35:45;;;;;;;;;;;13.60;74.70;;;;;;5072717;28;20356;-33
2023/06/07 04:38:23;;;;;;;;;;;13.60;75.00;;;;;;5072835;28;19966;-35
2023/06/07 04:40:52;;;;;;;;;;;13.60;75.00;;;;;;5072618;28;19908;-35
2023/06/07 04:43:18;;;;;;;;;;;13.50;74.90;;;;;;5072794;28;19909;-35
2023/06/07 04:45:46;;;;;;;;;;;13.50;75.10;;;;;;5078713;28;19916;-34
2023/06/07 04:48:12;;;;;;;;;;;13.50;75.10;;;;;;5079139;28;19920;-35
2023/06/07 04:50:44;;;;;;;;;;;13.60;75.00;;;;;;5079317;28;19916;-35
2023/06/07 04:53:10;;;;;;;;;;;13.60;75.00;;;;;;5079357;28;19912;-35
2023/06/07 04:55:37;;;;;;;;;;;13.60;75.00;;;;;;5079303;28;19909;-36
2023/06/07 04:58:04;;;;;;;;;;;13.60;75.00;;;;;;5079275;28;19913;-35
2023/06/07 05:00:30;;;;;;;;;;;13.70;75.00;;;;;;5079311;28;19919;-34
2023/06/07 05:02:56;;;;;;;;;;;13.70;75.10;;;;;;5079293;28;20003;-35
2023/06/07 05:05:22;;;;;;;;;;;13.80;75.20;;;;;;5079138;28;20391;-35
2023/06/07 05:07:49;;;;;;;;;;;13.80;75.00;;;;;;5079145;28;19916;-35
2023/06/07 05:10:15;;;;;;;;;;;13.90;75.20;;;;;;5079302;28;19915;-34
2023/06/07 05:12:41;;;;;;;;;;;13.90;74.70;;;;;;5079183;28;20240;-35
2023/06/07 05:15:07;;;;;;;;;;;14.10;74.60;;;;;;5079047;28;19916;-37
2023/06/07 05:17:32;;;;;;;;;;;14.20;74.70;;;;;;5079090;28;19908;-34
2023/06/07 05:19:58;;;;;;;;;;;14.20;74.50;;;;;;5079117;28;19916;-26
2023/06/07 05:22:23;;;;;;;;;;;14.20;74.40;;;;;;5078957;28;20008;-27
2023/06/07 05:24:49;;;;;;;;;;;14.30;74.20;;;;;;5079024;28;19915;-31
2023/06/07 05:27:15;;;;;;;;;;;14.40;74.10;;;;;;5078950;28;19995;-33
2023/06/07 05:29:41;;;;;;;;;;;14.50;74.00;;;;;;5078938;28;19908;-30
2023/06/07 05:32:06;;;;;;;;;;;14.50;73.90;;;;;;5077554;28;19909;-28
2023/06/07 05:34:35;;;;;;;;;;;14.50;73.70;;;;;;5078435;28;20390;-28
2023/06/07 05:37:02;;;;;;;;;;;14.70;73.90;;;;;;5078916;28;19908;-26
2023/06/07 05:39:27;;;;;;;;;;;14.70;73.70;;;;;;5078826;28;19919;-26
2023/06/07 05:41:53;;;;;;;;;;;14.80;73.60;;;;;;5077498;28;19908;-30
2023/06/07 05:44:18;;;;;;;;;;;14.80;73.40;;;;;;5078794;28;19912;-26
2023/06/07 05:46:44;;;;;;;;;;;14.90;73.30;;;;;;5078530;28;19912;-28
2023/06/07 05:49:09;;;;;;;;;;;14.90;73.10;;;;;;5078612;28;20362;-27
2023/06/07 05:51:35;;;;;;;;;;;14.90;73.00;;;;;;5078708;28;19932;-27
2023/06/07 05:54:00;;;;;;;;;;;14.90;72.90;;;;;;5078708;28;19908;-28
2023/06/07 05:56:27;;;;;;;;;;;15.00;72.90;;;;;;5074905;28;20056;-28
2023/06/07 05:58:53;;;;;;;;;;;15.00;72.90;;;;;;5074387;28;19912;-29
2023/06/07 06:01:19;;;;;;;;;;;14.90;72.90;;;;;;5075364;28;19973;-29
2023/06/07 06:03:44;;;;;;;;;;;15.00;72.90;;;;;;5075151;28;20003;-26
2023/06/07 06:06:17;;;;;;;;;;;15.00;72.80;;;;;;5074097;28;19916;-25
2023/06/07 06:08:43;;;;;;;;;;;15.00;72.70;;;;;;5075290;28;20328;-29
2023/06/07 06:11:10;;;;;;;;;;;15.00;72.70;;;;;;5075259;28;19920;-33
2023/06/07 06:13:36;;;;;;;;;;;15.00;72.80;;;;;;5075274;28;20279;-27
2023/06/07 06:16:02;;;;;;;;;;;15.00;72.60;;;;;;5075085;28;20002;-27
2023/06/07 06:18:27;;;;;;;;;;;15.00;72.70;;;;;;5075008;28;20363;-28
2023/06/07 06:20:53;;;;;;;;;;;15.00;72.70;;;;;;5075034;28;20061;-28
2023/06/07 06:23:18;;;;;;;;;;;15.00;72.70;;;;;;5075126;28;19912;-28
2023/06/07 06:25:44;;;;;;;;;;;15.00;72.70;;;;;;5074911;28;19912;-27
2023/06/07 06:28:09;;;;;;;;;;;15.00;72.70;;;;;;5074922;28;19917;-25
2023/06/07 06:30:35;;;;;;;;;;;15.00;72.60;;;;;;5074683;28;19912;-27
2023/06/07 06:33:00;;;;;;;;;;;15.10;72.80;;;;;;5074767;28;19919;-28
2023/06/07 06:35:27;;;;;;;;;;;15.10;72.90;;;;;;5074848;28;19913;-30
2023/06/07 06:37:52;;;;;;;;;;;15.20;72.70;;;;;;5074833;28;19916;-31
2023/06/07 06:40:20;;;;;;;;;;;15.20;72.80;;;;;;5074865;28;19918;-28
2023/06/07 06:42:46;;;;;;;;;;;15.30;72.50;;;;;;5074725;28;19948;-27
2023/06/07 06:45:11;;;;;;;;;;;15.30;72.40;;;;;;5074771;28;19916;-27
2023/06/07 06:47:41;;;;;;;;;;;15.30;72.30;;;;;;5074506;28;20012;-36
2023/06/07 06:50:08;;;;;;;;;;;15.30;72.50;;;;;;5074662;28;19913;-30
2023/06/07 06:52:34;;;;;;;;;;;15.30;72.50;;;;;;5074559;28;19935;-28
2023/06/07 06:54:59;;;;;;;;;;;15.20;72.50;;;;;;5074534;28;19916;-27
2023/06/07 06:57:25;;;;;;;;;;;15.30;72.50;;;;;;5074421;28;19912;-28
2023/06/07 06:59:50;;;;;;;;;;;15.30;72.50;;;;;;5074178;28;19917;-27
2023/06/07 07:02:16;;;;;;;;;;;15.30;72.50;;;;;;5074217;28;19912;-30
2023/06/07 07:04:42;;;;;;;;;;;15.40;72.30;;;;;;5074015;28;19943;-28
2023/06/07 07:07:07;;;;;;;;;;;15.40;72.40;;;;;;5074042;28;19920;-27
2023/06/07 07:09:33;;;;;;;;;;;15.40;72.30;;;;;;5074129;28;20319;-29
2023/06/07 07:11:58;;;;;;;;;;;15.40;72.30;;;;;;5074017;28;19912;-26
2023/06/07 07:14:24;;;;;;;;;;;15.50;72.20;;;;;;5074056;28;19919;-29
2023/06/07 07:16:49;;;;;;;;;;;15.50;71.90;;;;;;5073836;28;19913;-26
2023/06/07 07:19:15;;;;;;;;;;;15.60;72.00;;;;;;5073871;28;19916;-29
2023/06/07 07:21:43;;;;;;;;;;;15.60;72.00;;;;;;5073793;28;19912;-28
2023/06/07 07:24:08;;;;;;;;;;;15.60;72.10;;;;;;5074021;28;19912;-25
2023/06/07 07:26:35;;;;;;;;;;;15.60;72.00;;;;;;5073798;28;20382;-39
2023/06/07 07:29:01;;;;;;;;;;;15.60;72.10;;;;;;5073831;28;19920;-25
2023/06/07 07:31:29;;;;;;;;;;;15.70;71.70;;;;;;5073569;28;19936;-27
2023/06/07 07:33:55;;;;;;;;;;;15.70;71.70;;;;;;5073746;28;19913;-27
2023/06/07 07:36:21;;;;;;;;;;;15.80;71.60;;;;;;5073676;28;19965;-26
2023/06/07 07:38:47;;;;;;;;;;;15.80;71.40;;;;;;5073490;28;19974;-28
2023/06/07 07:41:13;;;;;;;;;;;16.00;71.30;;;;;;5073497;28;19919;-29
2023/06/07 07:43:38;;;;;;;;;;;16.10;71.10;;;;;;5073484;28;19912;-26
2023/06/07 07:46:04;;;;;;;;;;;16.20;70.80;;;;;;5073368;28;19939;-27
2023/06/07 07:48:29;;;;;;;;;;;16.40;70.70;;;;;;5073360;28;20379;-27
2023/06/07 07:50:55;;;;;;;;;;;16.50;70.30;;;;;;5073364;28;19916;-25
2023/06/07 07:53:20;;;;;;;;;;;16.60;70.10;;;;;;5073243;28;19919;-31
2023/06/07 07:55:46;;;;;;;;;;;16.70;69.80;;;;;;5073217;28;20390;-28
2023/06/07 07:58:11;;;;;;;;;;;16.80;69.70;;;;;;5073161;28;19921;-29
2023/06/07 08:00:37;;;;;;;;;;;16.90;69.50;;;;;;5073198;28;19975;-28
2023/06/07 08:03:03;;;;;;;;;;;17.00;69.30;;;;;;5073151;28;20335;-26
2023/06/07 08:05:28;;;;;;;;;;;17.00;69.10;;;;;;5072981;28;20297;-31
2023/06/07 08:07:54;;;;;;;;;;;17.10;69.00;;;;;;5071679;28;19913;-26
2023/06/07 08:10:19;;;;;;;;;;;17.10;68.80;;;;;;5072972;28;19924;-32
2023/06/07 08:12:45;;;;;;;;;;;17.20;68.60;;;;;;5073092;28;19932;-31
2023/06/07 08:15:10;;;;;;;;;;;17.20;68.20;;;;;;5072916;28;19912;-31
2023/06/07 08:17:36;;;;;;;;;;;17.20;68.00;;;;;;5071501;28;19912;-29
2023/06/07 08:20:04;;;;;;;;;;;17.30;68.20;;;;;;5072339;28;19916;-26
2023/06/07 08:22:30;;;;;;;;;;;17.40;68.20;;;;;;5072841;28;19955;-26
2023/06/07 08:24:55;;;;;;;;;;;17.50;67.80;;;;;;5072723;28;20005;-27
2023/06/07 08:27:21;;;;;;;;;;;17.50;67.70;;;;;;5072854;28;19912;-28
2023/06/07 08:29:46;;;;;;;;;;;17.60;67.80;;;;;;5072615;28;19939;-30
2023/06/07 08:32:12;;;;;;;;;;;17.60;67.20;;;;;;5072348;28;20365;-31
2023/06/07 08:34:39;;;;;;;;;;;17.60;67.50;;;;;;5072442;28;19912;-28
2023/06/07 08:37:06;;;;;;;;;;;17.70;67.30;;;;;;5072332;28;19962;-27
2023/06/07 08:39:31;;;;;;;;;;;17.70;67.30;;;;;;5072288;28;19995;-28
2023/06/07 08:41:57;;;;;;;;;;;17.70;67.10;;;;;;5072224;28;20310;-31
2023/06/07 08:44:22;;;;;;;;;;;17.70;67.30;;;;;;5072302;28;19912;-28
2023/06/07 08:46:49;;;;;;;;;;;17.70;67.20;;;;;;5072082;28;19913;-30
2023/06/07 08:49:15;;;;;;;;;;;17.70;67.20;;;;;;5072417;28;19919;-28
2023/06/07 08:51:41;;;;;;;;;;;17.80;67.20;;;;;;5072360;28;19913;-25
2023/06/07 08:54:08;;;;;;;;;;;17.90;67.10;;;;;;5072119;28;19973;-27
2023/06/07 08:56:34;;;;;;;;;;;17.90;67.00;;;;;;5072145;28;19913;-29
2023/06/07 08:59:01;;;;;;;;;;;18.00;67.00;;;;;;5072103;28;20367;-27
2023/06/07 09:01:28;;;;;;;;;;;18.10;66.70;;;;;;5072058;28;19913;-26
2023/06/07 09:03:54;;;;;;;;;;;18.10;66.10;;;;;;5070462;28;19999;-30
2023/06/07 09:06:21;;;;;;;;;;;18.00;66.10;;;;;;5072013;28;20387;-30
2023/06/07 09:08:47;;;;;;;;;;;18.00;66.30;;;;;;5072246;28;19913;-28
2023/06/07 09:11:13;;;;;;;;;;;18.00;66.40;;;;;;5072043;28;19923;-30
2023/06/07 09:13:38;;;;;;;;;;;18.10;66.50;;;;;;5071977;28;20027;-29
2023/06/07 09:16:04;;;;;;;;;;;18.20;66.30;;;;;;5071789;28;19938;-26
2023/06/07 09:18:43;;;;;;;;;;;18.30;66.20;;;;;;5071734;28;19920;-28
2023/06/07 09:21:19;;;;;;;;;;;18.40;66.70;;;;;;5071944;28;19918;-28
2023/06/07 09:23:45;;;;;;;;;;;18.50;65.80;;;;;;5072253;28;19955;-34
2023/06/07 09:26:11;;;;;;;;;;;18.70;65.60;;;;;;5070742;28;19978;-27
2023/06/07 09:28:37;;;;;;;;;;;18.70;65.40;;;;;;5072160;28;19952;-28
2023/06/07 09:31:04;;;;;;;;;;;18.80;65.10;;;;;;5074228;28;19913;-33
2023/06/07 09:33:36;;;;;;;;;;;18.80;65.00;;;;;;5075859;28;19920;-29
2023/06/07 09:36:02;;;;;;;;;;;18.90;65.00;;;;;;5075868;28;20283;-25
2023/06/07 09:38:27;;;;;;;;;;;19.00;65.00;;;;;;5075708;28;19917;-30
2023/06/07 09:40:53;;;;;;;;;;;19.00;64.90;;;;;;5074358;28;19912;-28
2023/06/07 09:43:18;;;;;;;;;;;19.10;64.80;;;;;;5075842;28;19970;-26
2023/06/07 09:45:54;;;;;;;;;;;19.10;64.30;;;;;;5075522;28;20034;-29
2023/06/07 09:48:19;;;;;;;;;;;19.10;64.40;;;;;;5075601;28;19917;-30
2023/06/07 09:50:55;;;;;;;;;;;19.00;64.30;;;;;;5075340;28;19916;-28
2023/06/07 09:53:20;;;;;;;;;;;19.00;64.50;;;;;;5075490;28;19982;-27
2023/06/07 09:55:46;;;;;;;;;;;19.00;64.60;;;;;;5075403;28;19912;-27
2023/06/07 09:58:22;;;;;;;;;;;19.10;64.60;;;;;;5075319;28;19928;-26
2023/06/07 10:00:47;;;;;;;;;;;19.20;64.50;;;;;;5075451;28;19935;-28
2023/06/07 10:03:13;;;;;;;;;;;19.20;64.40;;;;;;5075001;28;19912;-27
2023/06/07 10:05:39;;;;;;;;;;;19.20;64.20;;;;;;5075215;28;19920;-27
2023/06/07 10:08:08;;;;;;;;;;;19.20;64.30;;;;;;5075187;28;20019;-28
2023/06/07 10:10:34;;;;;;;;;;;19.20;64.60;;;;;;5075196;28;19927;-26
2023/06/07 10:13:03;;;;;;;;;;;19.30;64.30;;;;;;5074975;28;19919;-26
2023/06/07 10:15:29;;;;;;;;;;;19.30;64.40;;;;;;5075125;28;20009;-26
2023/06/07 10:17:57;;;;;;;;;;;19.40;64.30;;;;;;5074865;28;20386;-28
2023/06/07 10:20:24;;;;;;;;;;;19.50;64.10;;;;;;5073686;28;19912;-27
2023/06/07 10:22:51;;;;;;;;;;;19.60;64.00;;;;;;5074959;28;19916;-30
2023/06/07 10:25:19;;;;;;;;;;;19.80;63.80;;;;;;5074913;28;20389;-27
2023/06/07 10:27:44;;;;;;;;;;;19.90;63.60;;;;;;5074816;28;20354;-29
2023/06/07 10:30:11;;;;;;;;;;;20.00;63.10;;;;;;5074741;28;19912;-28
2023/06/07 10:32:38;;;;;;;;;;;20.10;63.00;;;;;;5074670;28;20410;-29
2023/06/07 10:35:09;;;;;;;;;;;20.30;62.90;;;;;;5074630;28;19923;-28
2023/06/07 10:37:36;;;;;;;;;;;20.40;62.80;;;;;;5074626;28;19962;-29
2023/06/07 10:40:10;;;;;;;;;;;20.60;62.30;;;;;;5074693;28;20014;-28
2023/06/07 10:42:43;;;;;;;;;;;20.80;62.20;;;;;;5073908;28;19935;-28
2023/06/07 10:45:15;;;;;;;;;;;21.00;62.00;;;;;;5074598;28;20371;-29
2023/06/07 10:47:41;;;;;;;;;;;21.10;61.70;;;;;;5074422;28;19962;-26
2023/06/07 10:50:07;;;;;;;;;;;21.30;61.50;;;;;;5074352;28;20053;-41
2023/06/07 10:52:32;;;;;;;;;;;21.40;61.30;;;;;;5074308;28;19940;-26
2023/06/07 10:54:58;;;;;;;;;;;21.50;61.20;;;;;;5074224;28;20327;-35
2023/06/07 10:57:37;;;;;;;;;;;21.60;60.90;;;;;;5074415;28;20550;-26
2023/06/07 11:00:21;;;;;;;;;;;21.70;60.40;;;;;;5074219;28;19923;-26
2023/06/07 11:02:47;;;;;;;;;;;21.80;60.40;;;;;;5072664;28;20232;-29
2023/06/07 11:05:13;;;;;;;;;;;21.90;60.00;;;;;;5073895;28;19921;-30
2023/06/07 11:07:41;;;;;;;;;;;21.90;60.00;;;;;;5074069;28;19916;-31
2023/06/07 11:10:07;;;;;;;;;;;21.90;60.20;;;;;;5074032;28;19965;-28
2023/06/07 11:12:35;;;;;;;;;;;21.90;60.00;;;;;;5073925;28;20011;-28
2023/06/07 11:15:27;;;;;;;;;;;21.80;59.90;;;;;;5073845;28;19913;-28
2023/06/07 11:17:54;;;;;;;;;;;21.80;60.00;;;;;;5073468;28;19912;-36
2023/06/07 11:20:35;;;;;;;;;;;21.80;60.20;;;;;;5073238;28;19916;-28
2023/06/07 11:23:23;;;;;;;;;;;21.80;60.20;;;;;;5073118;28;20261;-31
2023/06/07 11:26:10;;;;;;;;;;;21.80;60.00;;;;;;5073054;28;20007;-33
2023/06/07 11:28:37;;;;;;;;;;;21.90;60.30;;;;;;5073070;28;19908;-32
2023/06/07 11:31:03;;;;;;;;;;;22.00;59.70;;;;;;5073017;28;19962;-33
2023/06/07 11:33:30;;;;;;;;;;;22.10;59.60;;;;;;5072725;28;19909;-29
2023/06/07 11:35:56;;;;;;;;;;;22.10;59.50;;;;;;5072814;28;19916;-33
2023/06/07 11:38:22;;;;;;;;;;;22.20;59.50;;;;;;5072977;28;19912;-29
2023/06/07 11:40:48;;;;;;;;;;;22.30;59.60;;;;;;5072764;28;19908;-34
2023/06/07 11:43:14;;;;;;;;;;;22.40;59.50;;;;;;5072728;28;19945;-31
2023/06/07 11:45:40;;;;;;;;;;;22.40;59.40;;;;;;5072682;28;19927;-30
2023/06/07 11:48:06;;;;;;;;;;;22.40;59.40;;;;;;5072556;28;19993;-31
2023/06/07 11:50:33;;;;;;;;;;;22.50;59.50;;;;;;5072540;28;19948;-29
2023/06/07 11:52:59;;;;;;;;;;;22.50;59.40;;;;;;5072373;28;19912;-31
2023/06/07 11:55:24;;;;;;;;;;;22.50;59.10;;;;;;5071678;28;19935;-31
2023/06/07 11:57:53;;;;;;;;;;;22.50;59.20;;;;;;5072246;28;19915;-29
2023/06/07 12:00:23;;;;;;;;;;;22.50;59.20;;;;;;5072428;28;19951;-34
2023/06/07 12:02:52;;;;;;;;;;;22.60;59.10;;;;;;5072235;28;20008;-32
2023/06/07 12:05:18;;;;;;;;;;;22.60;59.20;;;;;;5072222;28;20398;-31
2023/06/07 12:07:52;;;;;;;;;;;22.70;59.20;;;;;;5072294;28;19908;-30
2023/06/07 12:10:23;;;;;;;;;;;22.70;59.20;;;;;;5072236;28;19908;-34
2023/06/07 12:13:02;;;;;;;;;;;22.80;59.20;;;;;;5072287;28;19912;-31
2023/06/07 12:15:29;;;;;;;;;;;22.80;59.10;;;;;;5072402;28;19954;-33
2023/06/07 12:17:54;;;;;;;;;;;22.90;59.20;;;;;;5072051;28;20334;-28
2023/06/07 12:20:20;;;;;;;;;;;22.90;59.10;;;;;;5072212;28;19962;-32
2023/06/07 12:22:46;;;;;;;;;;;23.00;59.10;;;;;;5072184;28;19996;-29
2023/06/07 12:25:15;;;;;;;;;;;23.00;59.00;;;;;;5072177;28;19950;-35
2023/06/07 12:27:49;;;;;;;;;;;23.10;58.90;;;;;;5072389;28;19946;-33
2023/06/07 12:30:19;;;;;;;;;;;23.10;58.80;;;;;;5072377;28;20323;-27
2023/06/07 12:32:44;;;;;;;;;;;23.10;58.80;;;;;;5072075;28;20290;-29
2023/06/07 12:35:13;;;;;;;;;;;23.10;58.80;;;;;;5072084;28;20038;-31
2023/06/07 12:37:39;;;;;;;;;;;23.10;58.90;;;;;;5071961;28;19908;-32
2023/06/07 12:40:05;;;;;;;;;;;23.10;58.80;;;;;;5071920;28;19915;-28
2023/06/07 12:42:32;;;;;;;;;;;23.10;58.80;;;;;;5072179;28;20369;-30
2023/06/07 12:44:58;;;;;;;;;;;23.10;58.90;;;;;;5071893;28;19931;-33
2023/06/07 12:47:23;;;;;;;;;;;23.10;59.50;;;;;;5072064;28;19908;-33
2023/06/07 12:49:49;;;;;;;;;;;23.10;58.90;;;;;;5071375;28;19923;-33
2023/06/07 12:52:15;;;;;;;;;;;23.10;58.80;;;;;;5071902;28;19916;-30
2023/06/07 12:54:40;;;;;;;;;;;23.20;58.80;;;;;;5071974;28;19909;-33
2023/06/07 12:57:06;;;;;;;;;;;23.30;58.70;;;;;;5071891;28;19909;-31
2023/06/07 12:59:31;;;;;;;;;;;23.50;58.60;;;;;;5071734;28;20364;-30
2023/06/07 13:01:57;;;;;;;;;;;23.70;58.30;;;;;;5071842;28;19909;-27
2023/06/07 13:04:23;;;;;;;;;;;23.80;58.20;;;;;;5071941;28;19943;-32
2023/06/07 13:06:49;;;;;;;;;;;23.90;57.90;;;;;;5074813;28;19940;-33
2023/06/07 13:09:14;;;;;;;;;;;24.00;57.70;;;;;;5076025;28;19961;-28
2023/06/07 13:11:40;;;;;;;;;;;24.00;57.70;;;;;;5075598;28;20298;-31
2023/06/07 13:14:07;;;;;;;;;;;24.10;57.50;;;;;;5075850;28;19909;-32
2023/06/07 13:16:32;;;;;;;;;;;24.10;56.90;;;;;;5075578;28;19909;-29
2023/06/07 13:18:58;;;;;;;;;;;24.20;56.80;;;;;;5075464;28;19962;-35
2023/06/07 13:21:23;;;;;;;;;;;24.40;56.80;;;;;;5075431;28;20379;-26
2023/06/07 13:23:49;;;;;;;;;;;24.50;56.40;;;;;;5075369;28;20327;-31
2023/06/07 13:26:14;;;;;;;;;;;24.60;56.30;;;;;;5075486;28;20279;-35
2023/06/07 13:28:43;;;;;;;;;;;24.70;56.20;;;;;;5075270;28;19917;-30
2023/06/07 13:31:10;;;;;;;;;;;24.80;55.80;;;;;;5075310;28;20003;-32
2023/06/07 13:33:35;;;;;;;;;;;25.00;55.70;;;;;;5075229;28;20019;-32
2023/06/07 13:36:00;;;;;;;;;;;25.20;55.40;;;;;;5075018;28;19912;-29
2023/06/07 13:38:26;;;;;;;;;;;25.40;55.40;;;;;;5074942;28;19974;-30
2023/06/07 13:40:51;;;;;;;;;;;25.60;55.30;;;;;;5075090;28;19915;-31
2023/06/07 13:43:17;;;;;;;;;;;25.80;55.20;;;;;;5075034;28;19913;-30
2023/06/07 13:45:43;;;;;;;;;;;25.90;55.10;;;;;;5075222;28;19908;-29
2023/06/07 13:48:11;;;;;;;;;;;26.00;54.90;;;;;;5075159;28;19948;-31
2023/06/07 13:50:40;;;;;;;;;;;26.10;54.60;;;;;;5074983;28;20336;-31
2023/06/07 13:53:06;;;;;;;;;;;26.30;54.20;;;;;;5074898;28;19908;-34
2023/06/07 13:55:31;;;;;;;;;;;26.50;54.10;;;;;;5073494;28;19908;-33
2023/06/07 13:57:57;;;;;;;;;;;26.50;54.00;;;;;;5074702;28;19916;-31
2023/06/07 14:00:22;;;;;;;;;;;26.50;53.90;;;;;;5074778;28;19963;-31
2023/06/07 14:02:48;;;;;;;;;;;26.50;53.60;;;;;;5074623;28;19947;-34
2023/06/07 14:05:14;;;;;;;;;;;26.50;53.50;;;;;;5074581;28;19920;-33
2023/06/07 14:07:40;;;;;;;;;;;26.50;53.50;;;;;;5074577;28;20003;-31
2023/06/07 14:10:06;;;;;;;;;;;26.50;53.60;;;;;;5074600;28;19913;-38
2023/06/07 14:12:32;;;;;;;;;;;26.50;53.70;;;;;;5074526;28;19909;-36
2023/06/07 14:14:57;;;;;;;;;;;26.50;53.60;;;;;;5074594;28;19914;-29